• Join FlightAware (Why Join?)
  • Login
  • US Flag 
09:18PM EDT


 

Airport Tracker/Info


-or-


 

Live Flight TrackerFlight Track Log ✈ ZK-NGM ✈ 10-May-2012 ✈ NZCH / CHC - NZWN / WLG

Flight Track Log - Related Links

Times and Time Zones

All times are in EDT time to prevent confusion due to time zone crossing. See the ZK-NGM flight status page for this flight to view local times or setup timezone preferences in your user account.

Time Position Orientation Groundspeed Altitude Reporting Facility
EDT Latitude Longitude Course Direction KTS MPH feet Rate Location/Type
01:44AM -43.4398 172.5867 39° Northeast  Level Estimated
01:45AM -43.3469 172.6885 38° Northeast  Level Estimated
01:46AM -43.2538 172.7900 38° Northeast  Level Estimated
01:47AM -43.1607 172.8912 38° Northeast  Level Estimated
01:48AM -43.0675 172.9921 38° Northeast  Level Estimated
01:49AM -42.9742 173.0927 38° Northeast  Level Estimated
01:50AM -42.8808 173.1929 38° Northeast  Level Estimated
01:51AM -42.7873 173.2929 38° Northeast  Level Estimated
01:52AM -42.6937 173.3926 38° Northeast  Level Estimated
01:53AM -42.6001 173.4920 38° Northeast  Level Estimated
01:54AM -42.5063 173.5910 38° Northeast  Level Estimated
01:55AM -42.4125 173.6898 38° Northeast  Level Estimated
01:56AM -42.3186 173.7883 38° Northeast  Level Estimated
01:57AM -42.2246 173.8865 38° Northeast  Level Estimated
01:58AM -42.1305 173.9844 38° Northeast  Level Estimated
01:59AM -42.0363 174.0820 38° Northeast  Level Estimated
02:00AM -41.9421 174.1793 37° Northeast  Level Estimated
02:01AM -41.8478 174.2764 37° Northeast  Level Estimated
02:02AM -41.7533 174.3731 37° Northeast  Level Estimated
02:03AM -41.6589 174.4696 37° Northeast  Level Estimated
02:04AM -41.5643 174.5658 37° Northeast  Level Estimated
02:05AM -41.4696 174.6617 37° Northeast  Level Estimated
02:06AM -41.3749 174.7573 37° Northeast  Level Estimated
02:07AM -41.2801 174.8526 217° Southwest  Level Estimated
02:08AM -41.3749 174.7573 37° Northeast  Level Estimated
02:09AM -41.2801 174.8526 217° Southwest  Level Estimated
02:10AM -41.3749 174.7573 37° Northeast  Level Estimated
02:11AM -41.2801 174.8526 217° Southwest  Level Estimated
02:12AM -41.3749 174.7573 37° Northeast  Level Estimated
02:13AM -41.2801 174.8526 217° Southwest  Level Estimated
02:14AM -41.3749 174.7573 37° Northeast  Level Estimated
02:15AM -41.2801 174.8526 217° Southwest  Level Estimated
02:16AM -41.3749 174.7573 37° Northeast  Level Estimated
02:17AM -41.2801 174.8526 217° Southwest  Level Estimated
02:18AM -41.3749 174.7573 37° Northeast  Level Estimated
02:19AM -41.2801 174.8526 217° Southwest  Level Estimated
02:20AM -41.3749 174.7573 37° Northeast  Level Estimated
02:21AM -41.2801 174.8526 217° Southwest  Level Estimated
02:22AM -41.3749 174.7573 217° Southwest  Level Estimated